createdAt,value
2019-04-06T00:01:32.273Z,14.53
2019-04-06T00:04:02.605Z,14.42
2019-04-06T00:06:32.691Z,14.38
2019-04-06T00:09:03.898Z,14.29
2019-04-06T00:11:33.854Z,14.31
2019-04-06T00:14:04.187Z,14.44
2019-04-06T00:16:35.101Z,14.40
2019-04-06T00:19:05.133Z,14.41
2019-04-06T00:21:35.147Z,14.48
2019-04-06T00:24:05.547Z,14.41
2019-04-06T00:26:35.947Z,14.30
2019-04-06T00:29:06.047Z,14.37
2019-04-06T00:32:01.177Z,14.36
2019-04-06T00:34:31.534Z,14.35
2019-04-06T00:37:01.558Z,14.30
2019-04-06T00:39:31.811Z,14.30
2019-04-06T00:42:01.863Z,14.31
2019-04-06T00:44:31.796Z,14.39
2019-04-06T00:47:01.816Z,14.39
2019-04-06T00:49:31.828Z,14.28
2019-04-06T00:52:01.727Z,14.33
2019-04-06T00:54:31.792Z,14.38
2019-04-06T00:57:02.170Z,14.21
2019-04-06T00:59:32.206Z,14.22
2019-04-06T01:02:02.133Z,14.21
2019-04-06T01:04:32.321Z,14.29
2019-04-06T01:07:02.533Z,14.30
2019-04-06T01:09:32.949Z,14.37
2019-04-06T01:12:02.946Z,14.29
2019-04-06T01:14:33.158Z,14.37
2019-04-06T01:17:04.110Z,14.25
2019-04-06T01:19:34.096Z,14.16
2019-04-06T01:22:04.071Z,14.39
2019-04-06T01:24:34.077Z,14.37
2019-04-06T01:27:04.205Z,14.26
2019-04-06T01:29:34.195Z,14.36
2019-04-06T01:32:04.269Z,14.33
2019-04-06T01:34:34.453Z,14.39
2019-04-06T01:37:04.777Z,14.34
2019-04-06T01:39:34.695Z,14.40
2019-04-06T01:42:04.642Z,14.34
2019-04-06T01:44:34.533Z,14.31
2019-04-06T01:47:04.496Z,14.29
2019-04-06T01:49:34.400Z,14.21
2019-04-06T01:52:04.317Z,14.31
2019-04-06T01:54:34.433Z,14.17
2019-04-06T01:57:04.424Z,14.15
2019-04-06T01:59:34.428Z,14.16
2019-04-06T02:02:12.396Z,14.06
2019-04-06T02:04:42.491Z,14.00
2019-04-06T02:07:12.628Z,14.02
2019-04-06T02:09:42.779Z,13.88
2019-04-06T02:12:13.024Z,13.88
2019-04-06T02:14:42.934Z,13.88
2019-04-06T02:17:12.832Z,13.90
2019-04-06T02:19:42.929Z,14.05
2019-04-06T02:22:13.144Z,14.03
2019-04-06T02:24:43.247Z,14.06
2019-04-06T02:27:13.161Z,14.08
2019-04-06T02:29:43.594Z,14.12
2019-04-06T02:32:26.500Z,14.13
2019-04-06T02:35:05.332Z,14.17
2019-04-06T02:37:56.267Z,14.20
2019-04-06T02:40:46.056Z,14.25
2019-04-06T02:43:19.535Z,14.26
2019-04-06T02:45:49.517Z,14.26
2019-04-06T02:48:19.478Z,14.08
2019-04-06T02:50:49.633Z,14.44
2019-04-06T02:53:19.513Z,14.24
2019-04-06T02:55:49.596Z,14.53
2019-04-06T02:58:22.825Z,14.16
2019-04-06T03:00:51.720Z,14.61
2019-04-06T03:03:23.423Z,14.64
2019-04-06T03:05:53.753Z,14.72
2019-04-06T03:08:23.710Z,14.64
2019-04-06T03:10:53.815Z,14.68
2019-04-06T03:13:24.103Z,14.49
2019-04-06T03:15:54.543Z,14.72
2019-04-06T03:18:25.153Z,14.80
2019-04-06T03:20:55.192Z,14.61
2019-04-06T03:23:25.794Z,14.58
2019-04-06T03:25:56.144Z,14.11
2019-04-06T03:28:26.229Z,14.58
2019-04-06T03:30:56.182Z,14.65
2019-04-06T03:33:26.176Z,14.48
2019-04-06T03:35:56.074Z,14.64
2019-04-06T03:38:26.025Z,14.67
2019-04-06T03:40:55.945Z,14.73
2019-04-06T03:43:25.874Z,14.70
2019-04-06T03:45:55.868Z,14.56
2019-04-06T03:48:25.843Z,14.63
2019-04-06T03:50:55.747Z,14.15
2019-04-06T03:53:25.725Z,14.36
2019-04-06T03:55:55.849Z,14.43
2019-04-06T03:58:26.077Z,14.34
2019-04-06T04:00:56.053Z,14.18
2019-04-06T04:03:25.964Z,14.40
2019-04-06T04:05:56.173Z,14.45
2019-04-06T04:08:26.115Z,14.65
2019-04-06T04:10:56.695Z,14.51
2019-04-06T04:13:26.640Z,14.56
2019-04-06T04:15:57.653Z,14.39
2019-04-06T04:18:28.136Z,14.47
2019-04-06T04:20:58.036Z,14.54
2019-04-06T04:23:27.965Z,14.32
2019-04-06T04:25:57.871Z,14.48
2019-04-06T04:28:27.785Z,14.51
2019-04-06T04:30:57.708Z,14.58
2019-04-06T04:33:27.619Z,14.50
2019-04-06T04:35:57.535Z,14.45
2019-04-06T04:38:27.416Z,14.28
2019-04-06T04:40:57.711Z,14.52
2019-04-06T04:43:27.673Z,14.63
2019-04-06T04:45:57.636Z,14.52
2019-04-06T04:48:27.846Z,14.29
2019-04-06T04:50:57.773Z,13.71
2019-04-06T04:53:27.685Z,14.02
2019-04-06T04:55:57.835Z,13.93
2019-04-06T04:58:28.119Z,14.26
2019-04-06T05:00:58.048Z,14.30
2019-04-06T05:03:27.967Z,14.08
2019-04-06T05:05:58.140Z,14.15
2019-04-06T05:08:28.415Z,14.21
2019-04-06T05:10:58.441Z,14.29
2019-04-06T05:13:28.375Z,13.76
2019-04-06T05:16:23.598Z,14.14
2019-04-06T05:18:53.518Z,13.89
2019-04-06T05:21:23.723Z,14.41
2019-04-06T05:23:53.974Z,14.42
2019-04-06T05:26:24.446Z,14.77
2019-04-06T05:28:54.688Z,14.58
2019-04-06T05:31:24.812Z,14.94
2019-04-06T05:33:55.021Z,14.53
2019-04-06T05:36:24.998Z,14.75
2019-04-06T05:38:55.100Z,15.78
2019-04-06T05:41:25.041Z,16.44
2019-04-06T05:43:54.937Z,15.78
2019-04-06T05:46:25.511Z,16.14
2019-04-06T05:48:55.676Z,16.40
2019-04-06T05:51:25.665Z,16.41
2019-04-06T05:53:55.557Z,15.83
2019-04-06T05:56:25.698Z,15.83
2019-04-06T05:58:55.617Z,15.76
2019-04-06T06:01:25.633Z,15.77
2019-04-06T06:03:55.730Z,16.24
2019-04-06T06:06:25.694Z,15.57
2019-04-06T06:08:56.297Z,16.07
2019-04-06T06:11:26.287Z,15.07
2019-04-06T06:13:56.265Z,16.20
2019-04-06T06:16:26.343Z,15.35
2019-04-06T06:18:56.400Z,15.14
2019-04-06T06:21:26.501Z,15.52
2019-04-06T06:23:56.810Z,15.97
2019-04-06T06:26:26.837Z,15.24
2019-04-06T06:28:56.771Z,15.29
2019-04-06T06:31:26.690Z,15.76
2019-04-06T06:33:56.605Z,15.86
2019-04-06T06:36:26.581Z,16.12
2019-04-06T06:38:56.536Z,15.37
2019-04-06T06:41:26.833Z,15.79
2019-04-06T06:43:57.049Z,15.95
2019-04-06T06:46:26.966Z,15.26
2019-04-06T06:48:57.173Z,15.75
2019-04-06T06:51:27.395Z,15.04
2019-04-06T06:53:57.278Z,16.12
2019-04-06T06:56:27.596Z,16.15
2019-04-06T06:58:57.916Z,14.63
2019-04-06T07:01:28.077Z,15.06
2019-04-06T07:03:57.967Z,15.86
2019-04-06T07:06:27.988Z,15.60
2019-04-06T07:08:57.945Z,16.66
2019-04-06T07:11:28.336Z,17.30
2019-04-06T07:13:58.528Z,17.32
2019-04-06T07:16:28.464Z,17.01
2019-04-06T07:18:58.443Z,17.19
2019-04-06T07:21:28.355Z,17.61
2019-04-06T07:23:58.328Z,17.75
2019-04-06T07:26:28.695Z,16.35
2019-04-06T07:28:58.630Z,15.82
2019-04-06T07:31:28.637Z,15.31
2019-04-06T07:33:58.940Z,15.44
2019-04-06T07:36:28.848Z,15.32
2019-04-06T07:38:58.822Z,16.23
2019-04-06T07:41:28.743Z,16.83
2019-04-06T07:43:58.666Z,15.55
2019-04-06T07:46:29.087Z,15.14
2019-04-06T07:49:07.942Z,15.58
2019-04-06T07:51:31.223Z,15.65
2019-04-06T07:54:01.467Z,16.54
2019-04-06T07:56:31.458Z,16.57
2019-04-06T07:59:01.496Z,15.87
2019-04-06T08:01:31.565Z,15.71
2019-04-06T08:04:01.640Z,16.27
2019-04-06T08:06:31.827Z,15.96
2019-04-06T08:09:01.843Z,16.22
2019-04-06T08:11:32.151Z,16.40
2019-04-06T08:14:02.197Z,15.70
2019-04-06T08:16:32.166Z,15.77
2019-04-06T08:19:02.460Z,17.07
2019-04-06T08:21:33.218Z,17.32
2019-04-06T08:24:03.667Z,16.38
2019-04-06T08:26:33.859Z,16.03
2019-04-06T08:29:04.067Z,16.25
2019-04-06T08:31:34.049Z,16.03
2019-04-06T08:34:04.108Z,16.24
2019-04-06T08:36:34.012Z,16.21
2019-04-06T08:39:06.017Z,17.16
2019-04-06T08:41:36.059Z,16.78
2019-04-06T08:44:06.424Z,16.52
2019-04-06T08:46:36.438Z,16.74
2019-04-06T08:49:06.887Z,16.26
2019-04-06T08:51:36.789Z,16.38
2019-04-06T08:54:07.190Z,16.64
2019-04-06T08:56:37.700Z,16.96
2019-04-06T08:59:12.018Z,16.95
2019-04-06T09:01:39.763Z,17.57
2019-04-06T09:04:09.783Z,18.68
2019-04-06T09:06:39.812Z,18.38
2019-04-06T09:09:09.949Z,18.46
2019-04-06T09:11:40.234Z,17.29
2019-04-06T09:14:10.242Z,17.50
2019-04-06T09:16:40.594Z,17.34
2019-04-06T09:19:10.469Z,17.14
2019-04-06T09:21:41.148Z,16.85
2019-04-06T09:24:11.224Z,16.92
2019-04-06T09:26:41.181Z,17.62
2019-04-06T09:29:21.886Z,18.68
2019-04-06T09:31:43.040Z,18.24
2019-04-06T09:34:12.963Z,17.80
2019-04-06T09:36:42.960Z,17.73
2019-04-06T09:39:12.887Z,17.54
2019-04-06T09:41:42.829Z,17.39
2019-04-06T09:44:21.024Z,17.23
2019-04-06T09:47:03.022Z,17.44
2019-04-06T09:49:54.722Z,17.95
2019-04-06T09:52:34.101Z,17.93
2019-04-06T09:55:22.107Z,18.49
2019-04-06T09:58:14.476Z,17.74
2019-04-06T10:00:55.245Z,17.95
2019-04-06T10:03:38.357Z,17.74
2019-04-06T10:06:27.959Z,17.81
2019-04-06T10:09:33.364Z,18.33
2019-04-06T10:12:18.887Z,18.11
2019-04-06T10:15:04.563Z,18.19
2019-04-06T10:17:43.165Z,18.08
2019-04-06T10:20:26.097Z,18.41
2019-04-06T10:23:14.072Z,19.36
2019-04-06T10:25:59.840Z,18.85
2019-04-06T10:28:44.273Z,18.64
2019-04-06T10:31:37.062Z,18.35
2019-04-06T10:34:25.078Z,19.10
2019-04-06T10:37:13.578Z,19.23
2019-04-06T10:40:05.665Z,18.67
2019-04-06T10:42:53.512Z,18.93
2019-04-06T10:45:33.938Z,19.44
2019-04-06T10:48:13.624Z,19.37
2019-04-06T10:51:01.242Z,19.43
2019-04-06T10:53:40.041Z,19.85
2019-04-06T10:56:32.155Z,19.68
2019-04-06T10:59:29.120Z,19.24
2019-04-06T11:02:24.452Z,19.31
2019-04-06T11:05:16.159Z,19.33
2019-04-06T11:08:08.460Z,19.32
2019-04-06T11:10:53.859Z,19.31
2019-04-06T11:13:35.891Z,19.37
2019-04-06T11:16:25.670Z,19.29
2019-04-06T11:19:12.244Z,19.51
2019-04-06T11:21:50.235Z,19.30
2019-04-06T11:24:39.152Z,19.22
2019-04-06T11:27:27.773Z,19.56
2019-04-06T11:30:13.249Z,19.77
2019-04-06T11:32:56.504Z,19.97
2019-04-06T11:35:44.541Z,19.84
2019-04-06T11:38:42.522Z,19.55
2019-04-06T11:41:21.386Z,19.70
2019-04-06T11:43:59.375Z,19.80
2019-04-06T11:46:40.419Z,20.05
2019-04-06T11:49:35.234Z,20.07
2019-04-06T11:52:17.342Z,20.24
2019-04-06T11:55:05.609Z,20.11
2019-04-06T11:57:54.480Z,20.24
2019-04-06T12:00:31.733Z,20.44
2019-04-06T12:03:22.430Z,20.60
2019-04-06T12:06:20.654Z,20.76
2019-04-06T12:08:59.743Z,20.49
2019-04-06T12:11:52.002Z,20.21
2019-04-06T12:14:27.333Z,20.89
2019-04-06T12:17:11.630Z,20.74
2019-04-06T12:20:08.010Z,20.54
2019-04-06T12:22:53.672Z,20.17
2019-04-06T12:25:51.581Z,20.51
2019-04-06T12:28:28.961Z,20.41
2019-04-06T12:31:18.070Z,20.32
2019-04-06T12:34:00.600Z,20.77
2019-04-06T12:36:36.910Z,21.54
2019-04-06T12:39:17.982Z,20.34
2019-04-06T12:42:10.483Z,20.48
2019-04-06T12:45:04.095Z,20.34
2019-04-06T12:47:42.424Z,20.33
2019-04-06T12:50:23.036Z,20.70
2019-04-06T12:53:11.003Z,20.42
2019-04-06T12:56:06.008Z,20.42
2019-04-06T12:58:51.709Z,20.42
2019-04-06T13:01:41.474Z,20.30
2019-04-06T13:04:25.477Z,20.39
2019-04-06T13:07:14.013Z,20.61
2019-04-06T13:10:06.070Z,20.74
2019-04-06T13:12:48.377Z,20.60
2019-04-06T13:15:34.218Z,20.73
2019-04-06T13:18:32.463Z,20.48
2019-04-06T13:21:27.580Z,20.76
2019-04-06T13:24:08.539Z,20.76
2019-04-06T13:26:56.312Z,20.69
2019-04-06T13:29:39.976Z,20.96
2019-04-06T13:32:21.389Z,21.13
2019-04-06T13:35:14.905Z,20.87
2019-04-06T13:37:56.268Z,21.39
2019-04-06T13:40:50.292Z,21.18
2019-04-06T13:43:44.987Z,20.82
2019-04-06T13:46:24.220Z,20.92
2019-04-06T13:49:06.132Z,21.05
2019-04-06T13:51:44.395Z,20.96
2019-04-06T13:54:33.791Z,21.24
2019-04-06T13:57:10.596Z,21.32
2019-04-06T13:59:59.199Z,21.12
2019-04-06T14:02:44.034Z,20.87
2019-04-06T14:05:22.059Z,21.25
2019-04-06T14:08:03.347Z,21.03
2019-04-06T14:10:42.690Z,20.90
2019-04-06T14:13:37.086Z,20.92
2019-04-06T14:16:24.706Z,20.93
2019-04-06T14:19:17.696Z,20.93
2019-04-06T14:22:12.561Z,20.95
2019-04-06T14:25:07.400Z,20.91
2019-04-06T14:28:14.406Z,21.10
2019-04-06T14:31:27.922Z,21.28
2019-04-06T14:34:11.906Z,21.21
2019-04-06T14:36:50.634Z,21.17
2019-04-06T14:39:39.756Z,21.38
2019-04-06T14:42:30.731Z,21.05
2019-04-06T14:45:18.298Z,20.98
2019-04-06T14:48:04.748Z,20.85
2019-04-06T14:50:41.836Z,21.20
2019-04-06T14:53:33.615Z,21.05
2019-04-06T14:56:12.229Z,20.90
2019-04-06T14:59:07.965Z,20.91
2019-04-06T15:02:00.150Z,20.88
2019-04-06T15:04:54.338Z,20.95
2019-04-06T15:07:30.674Z,20.90
2019-04-06T15:10:10.836Z,20.91
2019-04-06T15:12:50.113Z,20.87
2019-04-06T15:15:37.641Z,20.80
2019-04-06T15:18:32.736Z,20.70
2019-04-06T15:21:34.502Z,20.88
2019-04-06T15:24:19.993Z,20.89
2019-04-06T15:27:11.398Z,21.09
2019-04-06T15:29:50.311Z,21.35
2019-04-06T15:32:28.961Z,21.02
2019-04-06T15:35:07.377Z,20.80
2019-04-06T15:37:44.790Z,21.01
2019-04-06T15:40:25.321Z,21.21
2019-04-06T15:43:05.261Z,20.96
2019-04-06T15:45:54.281Z,20.86
2019-04-06T15:49:01.338Z,21.59
2019-04-06T15:51:46.385Z,21.29
2019-04-06T15:54:33.077Z,20.69
2019-04-06T15:57:27.782Z,20.71
2019-04-06T16:00:03.375Z,20.81
2019-04-06T16:03:00.989Z,20.92
2019-04-06T16:06:09.441Z,20.48
2019-04-06T16:09:07.671Z,20.77
2019-04-06T16:11:52.862Z,20.52
2019-04-06T16:14:33.463Z,20.61
2019-04-06T16:17:15.053Z,20.65
2019-04-06T16:20:04.226Z,20.62
2019-04-06T16:22:53.883Z,20.52
2019-04-06T16:25:30.716Z,20.39
2019-04-06T16:28:25.896Z,20.46
2019-04-06T16:31:16.023Z,20.25
2019-04-06T16:33:59.365Z,20.37
2019-04-06T16:36:42.722Z,20.27
2019-04-06T16:39:30.077Z,20.16
2019-04-06T16:42:29.485Z,20.25
2019-04-06T16:45:07.318Z,20.29
2019-04-06T16:48:03.297Z,20.25
2019-04-06T16:50:38.477Z,20.01
2019-04-06T16:53:36.711Z,20.16
2019-04-06T16:56:20.990Z,20.13
2019-04-06T16:59:03.752Z,20.26
2019-04-06T17:01:38.794Z,20.13
2019-04-06T17:04:42.814Z,20.11
2019-04-06T17:07:25.226Z,20.14
2019-04-06T17:10:29.384Z,20.10
2019-04-06T17:13:09.713Z,19.92
2019-04-06T17:15:54.809Z,19.97
2019-04-06T17:18:43.697Z,20.10
2019-04-06T17:21:25.782Z,19.82
2019-04-06T17:24:14.006Z,19.73
2019-04-06T17:26:59.284Z,20.09
2019-04-06T17:29:49.732Z,19.79
2019-04-06T17:32:38.317Z,19.66
2019-04-06T17:35:32.494Z,19.78
2019-04-06T17:38:10.216Z,19.78
2019-04-06T17:40:54.702Z,19.46
2019-04-06T17:43:43.034Z,19.37
2019-04-06T17:46:37.128Z,19.34
2019-04-06T17:49:28.661Z,19.30
2019-04-06T17:52:17.264Z,19.43
2019-04-06T17:55:14.483Z,19.38
2019-04-06T17:57:57.823Z,19.31
2019-04-06T18:00:35.884Z,19.19
2019-04-06T18:03:28.511Z,19.05
2019-04-06T18:06:28.379Z,19.08
2019-04-06T18:09:16.418Z,19.37
2019-04-06T18:11:57.860Z,19.16
2019-04-06T18:14:28.097Z,19.08
2019-04-06T18:16:58.318Z,19.05
2019-04-06T18:19:28.786Z,19.20
2019-04-06T18:21:59.500Z,18.97
2019-04-06T18:24:29.783Z,19.05
2019-04-06T18:26:59.997Z,19.20
2019-04-06T18:29:30.844Z,19.08
2019-04-06T18:32:09.915Z,18.73
2019-04-06T18:34:42.139Z,18.98
2019-04-06T18:37:45.993Z,18.80
2019-04-06T18:40:23.647Z,18.84
2019-04-06T18:42:54.525Z,18.87
2019-04-06T18:45:34.110Z,18.62
2019-04-06T18:48:04.230Z,18.80
2019-04-06T18:50:38.221Z,18.61
2019-04-06T18:53:06.230Z,18.60
2019-04-06T18:55:36.264Z,18.80
2019-04-06T18:58:11.248Z,18.72
2019-04-06T19:00:38.382Z,18.56
2019-04-06T19:03:14.092Z,18.57
2019-04-06T19:05:43.313Z,18.70
2019-04-06T19:08:13.644Z,18.55
2019-04-06T19:10:51.315Z,18.40
2019-04-06T19:13:21.610Z,18.58
2019-04-06T19:15:51.800Z,18.42
2019-04-06T19:18:33.382Z,18.24
2019-04-06T19:21:24.194Z,18.54
2019-04-06T19:24:13.789Z,18.32
2019-04-06T19:26:45.445Z,18.01
2019-04-06T19:29:15.384Z,18.23
2019-04-06T19:31:46.025Z,18.48
2019-04-06T19:34:15.958Z,18.09
2019-04-06T19:36:46.097Z,18.26
2019-04-06T19:39:16.215Z,18.05
2019-04-06T19:41:46.222Z,17.84
2019-04-06T19:44:16.719Z,17.83
2019-04-06T19:46:47.025Z,18.03
2019-04-06T19:49:17.857Z,17.99
2019-04-06T19:51:48.154Z,17.85
2019-04-06T19:54:18.143Z,17.68
2019-04-06T19:56:48.590Z,17.79
2019-04-06T19:59:18.776Z,17.93
2019-04-06T20:01:49.296Z,17.87
2019-04-06T20:04:19.474Z,17.58
2019-04-06T20:06:50.450Z,17.69
2019-04-06T20:09:20.793Z,17.72
2019-04-06T20:11:51.407Z,17.66
2019-04-06T20:14:21.934Z,17.54
2019-04-06T20:16:51.925Z,17.71
2019-04-06T20:19:22.601Z,17.29
2019-04-06T20:21:53.005Z,17.73
2019-04-06T20:24:23.437Z,18.14
2019-04-06T20:26:53.440Z,17.51
2019-04-06T20:29:23.715Z,17.46
2019-04-06T20:31:54.293Z,17.70
2019-04-06T20:34:24.215Z,17.21
2019-04-06T20:36:54.209Z,17.24
2019-04-06T20:39:24.284Z,17.27
2019-04-06T20:41:54.559Z,17.20
2019-04-06T20:44:24.958Z,17.53
2019-04-06T20:46:55.188Z,17.22
2019-04-06T20:49:25.216Z,17.55
2019-04-06T20:51:55.296Z,16.94
2019-04-06T20:54:25.309Z,16.95
2019-04-06T20:56:57.999Z,17.09
2019-04-06T20:59:27.424Z,17.28
2019-04-06T21:01:57.831Z,17.44
2019-04-06T21:04:29.192Z,17.20
2019-04-06T21:06:59.937Z,17.49
2019-04-06T21:09:35.294Z,17.13
2019-04-06T21:12:05.386Z,17.72
2019-04-06T21:14:36.204Z,17.35
2019-04-06T21:17:06.884Z,17.27
2019-04-06T21:19:42.691Z,17.17
2019-04-06T21:22:12.824Z,17.31
2019-04-06T21:24:44.114Z,17.10
2019-04-06T21:27:14.349Z,17.33
2019-04-06T21:29:44.560Z,17.71
2019-04-06T21:32:15.075Z,16.87
2019-04-06T21:34:45.765Z,17.15
2019-04-06T21:37:16.233Z,16.60
2019-04-06T21:39:46.762Z,17.20
2019-04-06T21:42:17.204Z,16.97
2019-04-06T21:44:48.048Z,17.15
2019-04-06T21:47:18.486Z,17.81
2019-04-06T21:49:49.394Z,17.88
2019-04-06T21:52:19.348Z,16.95
2019-04-06T21:54:49.844Z,17.00
2019-04-06T21:57:20.494Z,16.90
2019-04-06T21:59:50.519Z,17.29
2019-04-06T22:02:28.616Z,17.07
2019-04-06T22:04:59.020Z,16.98
2019-04-06T22:07:29.802Z,16.50
2019-04-06T22:09:59.924Z,16.61
2019-04-06T22:12:30.091Z,16.70
2019-04-06T22:15:00.770Z,16.59
2019-04-06T22:17:33.549Z,16.50
2019-04-06T22:20:03.030Z,16.46
2019-04-06T22:22:35.376Z,16.73
2019-04-06T22:25:06.263Z,16.70
2019-04-06T22:27:37.085Z,16.28
2019-04-06T22:30:09.779Z,16.63
2019-04-06T22:32:40.294Z,15.85
2019-04-06T22:35:10.600Z,16.13
2019-04-06T22:37:41.887Z,16.09
2019-04-06T22:40:14.234Z,16.21
2019-04-06T22:42:45.108Z,16.20
2019-04-06T22:45:17.500Z,16.72
2019-04-06T22:47:47.693Z,16.12
2019-04-06T22:50:18.810Z,15.96
2019-04-06T22:52:48.879Z,16.08
2019-04-06T22:55:20.998Z,15.77
2019-04-06T22:57:51.173Z,15.96
2019-04-06T23:00:32.127Z,16.03
2019-04-06T23:03:13.303Z,15.71
2019-04-06T23:05:47.038Z,16.42
2019-04-06T23:08:16.922Z,16.31
2019-04-06T23:10:47.587Z,16.52
2019-04-06T23:13:17.747Z,16.51
2019-04-06T23:15:47.999Z,16.00
2019-04-06T23:18:18.645Z,16.00
2019-04-06T23:20:48.619Z,16.25
2019-04-06T23:23:18.562Z,16.49
2019-04-06T23:25:48.481Z,16.02
2019-04-06T23:28:18.496Z,16.63
2019-04-06T23:30:48.838Z,16.36
2019-04-06T23:33:18.851Z,16.63
2019-04-06T23:35:49.164Z,16.30
2019-04-06T23:38:19.279Z,15.95
2019-04-06T23:40:49.762Z,15.92
2019-04-06T23:43:19.825Z,16.04
2019-04-06T23:45:50.372Z,15.64
2019-04-06T23:48:20.672Z,15.64
2019-04-06T23:50:51.633Z,15.55
2019-04-06T23:53:21.966Z,15.65
2019-04-06T23:55:51.907Z,15.91
2019-04-06T23:58:21.858Z,15.10
